UHBB

Blagoveshchensk/Ignatyevo Airport

Airport
ICAO code
UHBB
Summary
ICAO Region
EUR
ICAO Territory
Location

Blagoveshchensk,

Coordinates
50° 25' 30" N , 127° 24' 48" E
Metar
UHBB 280530Z 34006MPS 9999 SCT033 M09/M16 Q1029 R36R/090067 NOSIG RMK QFE753/1005

Description

Ignatyevo Airport is a large airport in Russia located 20 km northwest of Blagoveshchensk.

Climatology

Subarctic climate (Köppen climate classification Dfc) - long, usually very cold winters, and short, cool to mild summers

Runways

Designator Length Width Surface Rops
18/36 2821 45 ASP No/No

Airport map

Aerial View

SKYbrary Partners:

Safety knowledge contributed by: